Nyk Orpheus — 7JDN — position and weather

sailwx.info

Track history (hours):
 
Tides and Currents Weather Stations Pressure Air Temp Water Temp Dewpoint Dewpoint Depression Visibility Wind Speed Wind Dir Waves Ship Positions

Nyk Orpheus

Last reported at 2015-Jul-31 10:28 UTC. Time now 2015-Aug-01 18:14 UTC.
Position N 36°48' W 010°58'.

Length 336 m; draft 13 m.

Type: Other ship. MMSI: 432657000.

Date/timePositionNaut miles runAvg speedWind from/ knotsBaromVisibWave heightAir tempDewpointWater temp
2015-Jul-31 10:28N 36°48' W 010°58'64316.1
2015-Jul-29 18:27N 39°33' W 024°09'1716.2
2015-Jul-29 17:26N 39°36' W 024°30'4816.2
2015-Jul-29 14:27N 39°43' W 025°32'7216.4
2015-Jul-29 10:05N 39°58' W 027°04'4116.1
2015-Jul-29 07:33N 40°06' W 027°56'1616.2
2015-Jul-29 06:32N 40°08' W 028°17'1616.2
2015-Jul-29 05:34N 40°11' W 028°38'1716.3
2015-Jul-29 04:33N 40°14' W 028°59'3716.4
2015-Jul-29 02:16N 40°20' W 029°47'1416.4
2015-Jul-29 01:26N 40°22' W 030°05'1516.4
2015-Jul-29 00:32N 40°23' W 030°24'1616.4
2015-Jul-28 23:32N 40°25' W 030°46'1616.2
2015-Jul-28 22:34N 40°26' W 031°06'1616.2
2015-Jul-28 21:33N 40°27' W 031°28'1816.4
2015-Jul-28 20:26N 40°28' W 031°52'  
Track history (hours):
 
Tides and Currents Weather Stations Pressure Air Temp Water Temp Dewpoint Dewpoint Depression Visibility Wind Speed Wind Dir Waves Ship Positions

Nyk Orpheus

Last reported at 2015-Jul-31 10:28 UTC. Time now 2015-Aug-01 18:14 UTC.
Position N 36°48' W 010°58'.

Length 336 m; draft 13 m.

Type: Other ship. MMSI: 432657000.

Date/timePositionNaut miles runAvg speedWind from/ knotsBaromVisibWave heightAir tempDewpointWater temp
2015-Jul-31 10:28N 36°48' W 010°58'64316.1
2015-Jul-29 18:27N 39°33' W 024°09'1716.2
2015-Jul-29 17:26N 39°36' W 024°30'4816.2
2015-Jul-29 14:27N 39°43' W 025°32'7216.4
2015-Jul-29 10:05N 39°58' W 027°04'4116.1
2015-Jul-29 07:33N 40°06' W 027°56'1616.2
2015-Jul-29 06:32N 40°08' W 028°17'1616.2
2015-Jul-29 05:34N 40°11' W 028°38'1716.3
2015-Jul-29 04:33N 40°14' W 028°59'3716.4
2015-Jul-29 02:16N 40°20' W 029°47'1416.4
2015-Jul-29 01:26N 40°22' W 030°05'1516.4
2015-Jul-29 00:32N 40°23' W 030°24'1616.4
2015-Jul-28 23:32N 40°25' W 030°46'1616.2
2015-Jul-28 22:34N 40°26' W 031°06'1616.2
2015-Jul-28 21:33N 40°27' W 031°28'1816.4
2015-Jul-28 20:26N 40°28' W 031°52'  

Dump ship's entire track history